Time;durP1;ratioP1;P1;durP2;ratioP2;P2;SDS_P1;SDS_P2;PMS_P1;PMS_P2;Temp;Humidity;BMP_temperature;BMP_pressure;BME280_temperature;BME280_humidity;BME280_pressure;Samples;Min_cycle;Max_cycle;Signal;HPM_P1;HPM_P2
2022/09/21 00:00:14;;;;;;;2.80;1.17;;;13.60;99.90;;;;;;1934881;72;22313;-83
2022/09/21 00:03:06;;;;;;;2.37;0.90;;;13.60;99.90;;;;;;1911101;75;21094;-83
2022/09/21 00:06:04;;;;;;;4.00;0.90;;;13.60;99.90;;;;;;1907926;75;21152;-84
2022/09/21 00:08:56;;;;;;;1.92;0.80;;;13.50;99.90;;;;;;1901291;75;21498;-83
2022/09/21 00:11:48;;;;;;;4.03;1.05;;;13.50;99.90;;;;;;1907408;74;21087;-82
2022/09/21 00:14:39;;;;;;;2.87;1.00;;;13.40;99.90;;;;;;1916618;75;21160;-82
2022/09/21 00:17:31;;;;;;;2.70;0.90;;;13.30;99.90;;;;;;1932290;74;21051;-83
2022/09/21 00:20:34;;;;;;;3.30;1.30;;;13.20;99.90;;;;;;1905639;74;21592;-82
2022/09/21 00:23:24;;;;;;;3.47;1.20;;;13.20;99.90;;;;;;1841275;76;21589;-82
2022/09/21 00:26:18;;;;;;;2.50;1.20;;;13.20;99.90;;;;;;1851524;77;21078;-83
2022/09/21 00:29:12;;;;;;;2.75;0.93;;;13.10;99.90;;;;;;1858103;76;21131;-82
2022/09/21 00:32:05;;;;;;;2.58;0.80;;;13.00;99.90;;;;;;1849319;77;21100;-82
2022/09/21 00:37:39;;;;;;;4.05;0.88;;;12.90;99.90;;;;;;1944217;72;22258;-81
2022/09/21 00:40:32;;;;;;;4.05;0.80;;;12.90;99.90;;;;;;1920029;73;21583;-81
2022/09/21 00:43:23;;;;;;;2.92;0.85;;;12.90;99.90;;;;;;1930339;73;21059;-81
2022/09/21 00:46:18;;;;;;;1.80;0.78;;;12.90;99.90;;;;;;1917513;73;21094;-81
2022/09/21 00:49:10;;;;;;;3.25;1.07;;;12.90;99.90;;;;;;1938441;73;21163;-84
2022/09/21 00:52:05;;;;;;;3.60;1.35;;;12.90;99.90;;;;;;1927463;73;21506;-82
2022/09/21 00:54:58;;;;;;;3.15;0.95;;;12.80;99.90;;;;;;1938038;73;21059;-82
2022/09/21 01:00:27;;;;;;;4.53;1.17;;;12.90;99.90;;;;;;1962584;72;22227;-81
2022/09/21 01:03:18;;;;;;;5.25;1.42;;;12.80;99.90;;;;;;1920978;73;21585;-81
2022/09/21 01:06:10;;;;;;;2.98;0.98;;;12.80;99.90;;;;;;1924620;73;21237;-81
2022/09/21 01:09:02;;;;;;;3.52;1.12;;;12.80;99.90;;;;;;1867438;76;21055;-81
2022/09/21 01:12:00;;;;;;;5.42;1.32;;;12.60;99.90;;;;;;1917963;73;21094;-81
2022/09/21 01:15:05;;;;;;;2.22;1.00;;;12.60;99.90;;;;;;1925984;73;21136;-81
2022/09/21 01:18:01;;;;;;;4.20;0.82;;;12.60;99.90;;;;;;1922254;73;21051;-81
2022/09/21 01:21:20;;;;;;;5.00;1.10;;;12.60;99.90;;;;;;1921522;73;21079;-81
2022/09/21 01:24:17;;;;;;;;;;;12.60;99.90;;;;;;1923892;73;21118;-81
2022/09/21 01:30:11;;;;;;;4.97;1.32;;;12.60;99.90;;;;;;1945994;72;22111;-81
2022/09/21 01:35:46;;;;;;;1.85;1.02;;;12.60;99.90;;;;;;1942606;72;22316;-81
2022/09/21 01:38:40;;;;;;;3.10;1.00;;;12.60;99.90;;;;;;1899428;75;21107;-82
2022/09/21 01:41:34;;;;;;;2.47;1.07;;;12.60;99.90;;;;;;1899045;75;21050;-83
2022/09/21 01:44:32;;;;;;;4.53;1.30;;;12.60;99.90;;;;;;1887004;75;21095;-83
2022/09/21 01:50:03;;;;;;;2.90;1.10;;;12.50;99.90;;;;;;1950385;72;22330;-83
2022/09/21 01:55:37;;;;;;;4.30;1.45;;;12.40;99.90;;;;;;1935044;72;22137;-81
2022/09/21 02:01:10;;;;;;;1.72;1.20;;;12.40;99.90;;;;;;1943424;72;22749;-82
2022/09/21 02:04:04;;;;;;;2.60;1.30;;;12.40;99.90;;;;;;1900910;75;21047;-83
2022/09/21 02:09:37;;;;;;;2.85;1.00;;;12.30;99.90;;;;;;1950429;72;22191;-81
2022/09/21 02:12:30;;;;;;;1.90;0.82;;;12.30;99.90;;;;;;1884778;75;21193;-81
2022/09/21 02:15:26;;;;;;;3.25;0.98;;;12.30;99.90;;;;;;1902387;75;21048;-84
2022/09/21 02:21:03;;;;;;;2.20;0.95;;;12.30;99.90;;;;;;1946626;72;22155;-81
2022/09/21 02:23:59;;;;;;;1.98;1.02;;;12.40;99.90;;;;;;1917759;75;21059;-81
2022/09/21 02:26:55;;;;;;;2.45;0.85;;;12.40;99.90;;;;;;1917714;75;21047;-81
2022/09/21 02:32:36;;;;;;;3.05;1.00;;;12.30;99.90;;;;;;1953794;72;22743;-81
2022/09/21 02:35:31;;;;;;;1.98;0.93;;;12.30;99.90;;;;;;1926665;73;21066;-82
2022/09/21 02:38:26;;;;;;;3.35;1.02;;;12.30;99.90;;;;;;1917625;73;21065;-82
2022/09/21 02:41:19;;;;;;;2.85;1.20;;;12.20;99.90;;;;;;1917790;75;21125;-82
2022/09/21 02:44:13;;;;;;;3.20;1.20;;;12.20;99.90;;;;;;1917702;75;21050;-82
2022/09/21 02:47:10;;;;;;;3.02;1.20;;;12.20;99.90;;;;;;1940082;73;21112;-82
2022/09/21 02:50:05;;;;;;;2.77;1.20;;;12.20;99.90;;;;;;1921375;73;21122;-81
2022/09/21 02:55:36;;;;;;;3.92;1.10;;;12.20;99.90;;;;;;1933346;72;22166;-81
2022/09/21 02:58:29;;;;;;;3.10;1.20;;;12.20;99.90;;;;;;1898605;75;21051;-83
2022/09/21 03:01:21;;;;;;;6.17;1.50;;;12.20;99.90;;;;;;1898686;75;21119;-82
2022/09/21 03:06:53;;;;;;;4.65;1.70;;;12.00;99.90;;;;;;1946258;72;22155;-83
2022/09/21 03:09:45;;;;;;;3.33;1.15;;;12.00;99.90;;;;;;1895850;75;21209;-82
2022/09/21 03:12:37;;;;;;;2.22;1.00;;;12.00;99.90;;;;;;1894507;75;21148;-82
2022/09/21 03:15:28;;;;;;;2.67;1.20;;;12.00;99.90;;;;;;1880858;75;21105;-83
2022/09/21 03:20:59;;;;;;;6.33;1.40;;;12.00;99.90;;;;;;1952308;72;22213;-83
2022/09/21 03:23:50;;;;;;;2.67;1.20;;;12.00;99.90;;;;;;1894505;75;21598;-83
2022/09/21 03:26:42;;;;;;;6.05;1.30;;;12.00;99.90;;;;;;1900804;75;21098;-83
2022/09/21 03:29:33;;;;;;;3.77;1.20;;;12.00;99.90;;;;;;1887675;75;21944;-82
2022/09/21 03:35:04;;;;;;;3.60;1.20;;;12.00;99.90;;;;;;1947263;72;22189;-81
2022/09/21 03:37:56;;;;;;;3.37;1.00;;;12.00;99.90;;;;;;1898001;75;21238;-81
2022/09/21 03:40:49;;;;;;;3.77;1.17;;;12.00;99.90;;;;;;1895502;75;21101;-81
2022/09/21 03:46:24;;;;;;;2.92;1.40;;;12.00;99.90;;;;;;1950064;72;22557;-83
2022/09/21 03:49:16;;;;;;;3.08;1.25;;;12.00;99.90;;;;;;1918303;74;21098;-83
2022/09/21 03:52:07;;;;;;;4.85;1.27;;;12.10;99.90;;;;;;1918752;73;21607;-83
2022/09/21 03:54:59;;;;;;;4.03;1.30;;;12.00;99.90;;;;;;1917720;73;21119;-82
2022/09/21 03:57:50;;;;;;;5.12;1.17;;;11.90;99.90;;;;;;1922177;73;21568;-82
2022/09/21 04:00:42;;;;;;;3.85;1.20;;;11.80;99.90;;;;;;1917835;75;21124;-82
2022/09/21 04:06:12;;;;;;;4.72;1.55;;;11.70;99.90;;;;;;1949382;72;22143;-82
2022/09/21 04:09:04;;;;;;;3.52;1.20;;;11.70;99.90;;;;;;1906046;74;21115;-83
2022/09/21 04:11:55;;;;;;;5.00;1.60;;;11.70;99.90;;;;;;1887278;75;21055;-82
2022/09/21 04:14:46;;;;;;;3.70;1.70;;;11.70;99.90;;;;;;1887966;75;21057;-82
2022/09/21 04:20:15;;;;;;;3.33;1.55;;;11.70;99.90;;;;;;1934124;72;22243;-83
2022/09/21 04:23:07;;;;;;;4.15;1.47;;;11.70;99.90;;;;;;1917527;75;21156;-83
2022/09/21 04:25:58;;;;;;;5.00;1.42;;;11.60;99.90;;;;;;1889758;75;21179;-83
2022/09/21 04:28:50;;;;;;;3.70;1.30;;;11.60;99.90;;;;;;1916218;75;21172;-82
2022/09/21 04:34:21;;;;;;;5.30;1.50;;;11.60;99.90;;;;;;1927563;72;22562;-82
2022/09/21 04:37:12;;;;;;;3.62;1.27;;;11.60;99.90;;;;;;1923636;74;21462;-82
2022/09/21 04:40:05;;;;;;;3.62;1.40;;;11.60;99.90;;;;;;1919252;74;21114;-83
2022/09/21 04:42:57;;;;;;;3.35;1.57;;;11.50;99.90;;;;;;1900616;75;21140;-83
2022/09/21 04:45:49;;;;;;;4.65;1.40;;;11.50;99.90;;;;;;1901129;75;21062;-83
2022/09/21 04:48:41;;;;;;;5.25;1.50;;;11.50;99.90;;;;;;1906249;74;21472;-82
2022/09/21 04:51:32;;;;;;;4.50;1.55;;;11.50;99.90;;;;;;1925307;74;21145;-83
2022/09/21 04:57:02;;;;;;;4.30;1.40;;;11.50;99.90;;;;;;1921505;72;22671;-82
2022/09/21 04:59:54;;;;;;;6.58;1.45;;;11.50;99.90;;;;;;1905517;75;21136;-82
2022/09/21 05:05:24;;;;;;;2.87;1.17;;;11.50;99.90;;;;;;1928976;72;22139;-81
2022/09/21 05:08:16;;;;;;;6.03;1.60;;;11.50;99.90;;;;;;1904154;75;21114;-81
2022/09/21 05:11:09;;;;;;;2.75;1.27;;;11.40;99.90;;;;;;1899842;75;21046;-81
2022/09/21 05:14:00;;;;;;;2.87;1.27;;;11.40;99.90;;;;;;1901907;75;21149;-83
2022/09/21 05:16:52;;;;;;;3.75;1.60;;;11.40;99.90;;;;;;1884599;75;21114;-83
2022/09/21 05:19:43;;;;;;;3.42;1.45;;;11.30;99.90;;;;;;1906715;75;21161;-82
2022/09/21 05:25:14;;;;;;;4.30;1.75;;;11.30;99.90;;;;;;1952754;72;22216;-83
2022/09/21 05:28:08;;;;;;;5.80;1.87;;;11.30;99.90;;;;;;1904400;75;21098;-82
2022/09/21 05:31:04;;;;;;;3.83;1.50;;;11.40;99.90;;;;;;1902834;75;21496;-82
2022/09/21 05:34:00;;;;;;;7.12;2.25;;;11.40;99.90;;;;;;1898669;75;21074;-83
2022/09/21 05:36:55;;;;;;;6.70;1.92;;;11.40;99.90;;;;;;1891516;75;21243;-83
2022/09/21 05:42:27;;;;;;;4.28;1.42;;;11.40;99.90;;;;;;1949498;72;22242;-84
2022/09/21 05:45:21;;;;;;;4.60;1.15;;;11.40;99.90;;;;;;1897299;74;21148;-83
2022/09/21 05:48:16;;;;;;;2.33;1.22;;;11.40;99.90;;;;;;1911254;73;21073;-83
2022/09/21 05:51:11;;;;;;;2.67;1.50;;;11.40;99.90;;;;;;1912803;75;21560;-83
2022/09/21 05:54:06;;;;;;;3.33;1.20;;;11.40;99.90;;;;;;1913078;74;21068;-82
2022/09/21 05:59:53;;;;;;;3.33;1.25;;;11.40;99.90;;;;;;1936832;72;22298;-83
2022/09/21 06:03:01;;;;;;;4.25;1.40;;;11.50;99.90;;;;;;1899170;75;21181;-83
2022/09/21 06:05:51;;;;;;;;;;;11.50;99.90;;;;;;1888057;75;21288;-79
2022/09/21 06:08:43;;;;;;;4.17;1.32;;;11.50;99.90;;;;;;1903619;75;20151;-79
2022/09/21 06:11:34;;;;;;;5.03;1.67;;;11.40;99.90;;;;;;1870891;76;21067;-79
2022/09/21 06:14:26;;;;;;;8.03;1.70;;;11.50;99.90;;;;;;1901868;75;21106;-79
2022/09/21 06:19:58;;;;;;;5.28;1.42;;;11.70;99.90;;;;;;1951857;72;22765;-81
2022/09/21 06:25:29;;;;;;;3.95;1.52;;;11.70;99.90;;;;;;1947684;72;22223;-79
2022/09/21 06:31:01;;;;;;;4.20;1.60;;;11.80;99.90;;;;;;1936439;72;22345;-80
2022/09/21 06:33:52;;;;;;;2.20;1.32;;;11.90;99.90;;;;;;1909800;74;21118;-79
2022/09/21 06:36:44;;;;;;;6.22;1.40;;;11.90;99.90;;;;;;1900566;74;21059;-79
2022/09/21 06:39:35;;;;;;;4.12;1.60;;;11.90;99.90;;;;;;1905110;74;21490;-79
2022/09/21 06:42:28;;;;;;;4.87;1.82;;;12.00;99.90;;;;;;1922382;74;21057;-79
2022/09/21 06:45:19;;;;;;;4.65;2.25;;;12.00;99.90;;;;;;1913801;74;21134;-79
2022/09/21 06:48:11;;;;;;;3.55;1.60;;;12.10;99.90;;;;;;1887740;75;21105;-79
2022/09/21 06:51:05;;;;;;;2.92;1.75;;;12.10;99.90;;;;;;1894927;74;21063;-79
2022/09/21 06:53:58;;;;;;;6.60;2.02;;;12.10;99.90;;;;;;1897245;74;21115;-79
2022/09/21 06:56:56;;;;;;;5.30;2.10;;;12.20;99.90;;;;;;1903626;75;21179;-80
2022/09/21 06:59:52;;;;;;;6.42;2.37;;;12.10;99.90;;;;;;1902297;75;21206;-79
2022/09/21 07:02:45;;;;;;;5.83;2.30;;;12.10;99.90;;;;;;1916820;74;21617;-80
2022/09/21 07:05:37;;;;;;;4.62;2.33;;;12.10;99.90;;;;;;1897917;75;21047;-78
2022/09/21 07:08:28;;;;;;;7.55;2.22;;;12.20;99.90;;;;;;1911490;74;21165;-78
2022/09/21 07:11:22;;;;;;;4.20;2.42;;;12.20;99.90;;;;;;1909441;74;21090;-78
2022/09/21 07:14:14;;;;;;;6.42;1.92;;;12.30;99.90;;;;;;1908722;74;21096;-78
2022/09/21 07:17:07;;;;;;;5.47;1.95;;;12.20;99.90;;;;;;1910006;74;21147;-78
2022/09/21 07:20:02;;;;;;;5.10;2.10;;;12.20;99.90;;;;;;1913639;74;21062;-78
2022/09/21 07:25:33;;;;;;;5.92;2.30;;;12.40;99.90;;;;;;1958206;72;22650;-79
2022/09/21 07:28:24;;;;;;;5.50;1.95;;;12.50;99.90;;;;;;1897074;75;21204;-79
2022/09/21 07:31:17;;;;;;;4.60;1.52;;;12.50;99.90;;;;;;1884659;75;21059;-79
2022/09/21 07:34:08;;;;;;;5.30;1.82;;;12.60;99.90;;;;;;1884492;75;21086;-80
2022/09/21 07:37:23;;;;;;;5.83;1.65;;;12.70;99.90;;;;;;1889009;75;21109;-80
2022/09/21 07:40:15;;;;;;;3.87;1.90;;;12.80;99.90;;;;;;1894087;75;21578;-79
2022/09/21 07:45:54;;;;;;;4.35;1.90;;;12.90;99.90;;;;;;1954462;72;22622;-78
2022/09/21 07:48:50;;;;;;;4.30;2.37;;;13.00;99.90;;;;;;1898572;75;21129;-79
2022/09/21 07:52:04;;;;;;;6.03;2.17;;;13.10;99.90;;;;;;1923646;74;21105;-79
2022/09/21 07:54:57;;;;;;;5.45;1.90;;;13.20;99.90;;;;;;1914106;74;21251;-79
2022/09/21 08:01:02;;;;;;;6.17;2.15;;;13.30;99.90;;;;;;1907749;75;21062;-79
2022/09/21 08:03:55;;;;;;;5.15;1.62;;;13.40;99.90;;;;;;1906872;75;21050;-79
2022/09/21 08:06:47;;;;;;;6.17;1.70;;;13.50;99.90;;;;;;1900301;75;21054;-78
2022/09/21 08:09:38;;;;;;;7.20;1.82;;;13.60;99.90;;;;;;1885957;75;21075;-78
2022/09/21 08:12:30;;;;;;;3.27;1.37;;;13.70;99.90;;;;;;1894722;74;21129;-79
2022/09/21 08:20:39;;;;;;;5.20;1.60;;;13.90;99.90;;;;;;1952962;72;22140;-78
2022/09/21 08:23:30;;;;;;;3.17;1.75;;;14.00;99.90;;;;;;1917459;75;21094;-78
2022/09/21 08:26:23;;;;;;;3.33;1.72;;;14.10;99.90;;;;;;1933861;73;21181;-80
2022/09/21 08:29:15;;;;;;;2.98;1.22;;;14.20;99.90;;;;;;1922682;73;21577;-80
2022/09/21 08:32:09;;;;;;;3.58;2.00;;;14.20;99.90;;;;;;1917679;75;21537;-80
2022/09/21 08:35:02;;;;;;;4.00;1.60;;;14.30;99.90;;;;;;1929095;73;21161;-79
2022/09/21 08:40:35;;;;;;;6.33;2.00;;;14.40;99.90;;;;;;1927713;72;22335;-78
2022/09/21 08:43:30;;;;;;;3.70;1.27;;;14.50;99.90;;;;;;1891213;75;21147;-80
2022/09/21 08:46:24;;;;;;;2.70;1.40;;;14.60;99.90;;;;;;1900039;75;21036;-80
2022/09/21 08:49:19;;;;;;;4.62;1.80;;;14.60;99.90;;;;;;1907460;75;21101;-79
2022/09/21 08:52:13;;;;;;;4.33;1.40;;;14.70;99.90;;;;;;1886443;75;21128;-79
2022/09/21 08:55:10;;;;;;;6.00;1.55;;;14.80;99.90;;;;;;1900198;75;21155;-79
2022/09/21 08:58:03;;;;;;;5.22;1.62;;;14.80;99.90;;;;;;1905664;75;21643;-79
2022/09/21 09:01:06;;;;;;;3.87;1.60;;;15.00;99.90;;;;;;1908327;75;21059;-79
2022/09/21 09:04:44;;;;;;;3.65;1.25;;;15.10;99.90;;;;;;1912256;75;21117;-79
2022/09/21 09:10:41;;;;;;;2.65;1.95;;;15.20;99.90;;;;;;1938577;72;22137;-80
2022/09/21 09:16:21;;;;;;;5.72;2.02;;;15.20;99.90;;;;;;1945928;72;20139;-80
2022/09/21 09:19:18;;;;;;;3.42;1.40;;;15.30;99.90;;;;;;1886142;75;21117;-79
2022/09/21 09:22:12;;;;;;;3.37;1.45;;;15.30;99.90;;;;;;1905422;75;21074;-79
2022/09/21 09:25:07;;;;;;;2.90;1.50;;;15.40;99.90;;;;;;1897177;75;21128;-79
2022/09/21 09:30:38;;;;;;;3.87;1.70;;;15.40;99.90;;;;;;1939530;72;22158;-78
2022/09/21 09:36:13;;;;;;;3.25;1.70;;;15.60;99.90;;;;;;1947968;72;22159;-78
2022/09/21 09:39:08;;;;;;;4.80;1.40;;;15.80;99.90;;;;;;1892299;75;21068;-78
2022/09/21 09:42:26;;;;;;;4.05;1.50;;;15.90;99.90;;;;;;1902129;75;21043;-78
2022/09/21 09:45:32;;;;;;;2.67;1.30;;;15.90;99.90;;;;;;1886832;75;21070;-78
2022/09/21 09:48:34;;;;;;;2.67;1.55;;;15.90;99.90;;;;;;1888492;75;21058;-79
2022/09/21 09:51:26;;;;;;;3.95;1.35;;;16.00;99.90;;;;;;1892275;75;21059;-78
2022/09/21 09:54:21;;;;;;;3.08;1.60;;;16.00;99.90;;;;;;1904447;75;21148;-78
2022/09/21 09:57:14;;;;;;;4.70;1.40;;;16.10;99.90;;;;;;1895580;75;21490;-79
2022/09/21 10:00:11;;;;;;;3.90;1.20;;;16.20;99.90;;;;;;1906578;75;21100;-79
2022/09/21 10:03:04;;;;;;;5.20;1.22;;;16.30;99.90;;;;;;1890570;75;21120;-79
2022/09/21 10:05:56;;;;;;;4.37;1.20;;;16.30;99.90;;;;;;1902659;75;21164;-78
2022/09/21 10:11:38;;;;;;;3.20;1.25;;;16.30;99.90;;;;;;1952958;72;22157;-80
2022/09/21 10:14:33;;;;;;;3.58;1.40;;;16.30;99.90;;;;;;1903649;75;21183;-78
2022/09/21 10:20:09;;;;;;;3.95;1.77;;;16.50;99.90;;;;;;1958960;72;22321;-81
2022/09/21 10:23:02;;;;;;;2.37;1.30;;;16.50;99.90;;;;;;1921018;73;21158;-79
2022/09/21 10:26:05;;;;;;;3.42;1.35;;;16.60;99.90;;;;;;1925139;73;21054;-79
2022/09/21 10:29:19;;;;;;;4.62;1.50;;;16.70;99.90;;;;;;1922966;73;21089;-79
2022/09/21 10:38:14;;;;;;;4.65;1.70;;;16.60;99.90;;;;;;1956039;72;22133;-78
2022/09/21 10:41:11;;;;;;;4.80;1.50;;;16.70;99.90;;;;;;1951346;73;21063;-79
2022/09/21 10:46:46;;;;;;;4.45;1.40;;;16.70;99.90;;;;;;1931390;72;22605;-78
2022/09/21 10:49:40;;;;;;;2.70;0.90;;;16.80;99.90;;;;;;1896594;75;21056;-78
2022/09/21 10:55:20;;;;;;;4.62;1.47;;;16.90;99.90;;;;;;1936202;72;22149;-80
2022/09/21 11:00:52;;;;;;;1.90;1.30;;;16.90;99.90;;;;;;1945486;72;22307;-78
2022/09/21 11:03:50;;;;;;;4.45;1.30;;;16.90;99.90;;;;;;1898583;75;21165;-79
2022/09/21 11:06:44;;;;;;;3.05;1.65;;;17.00;99.90;;;;;;1888090;75;21070;-78
2022/09/21 11:09:42;;;;;;;4.78;1.40;;;17.00;99.90;;;;;;1885582;74;21058;-78
2022/09/21 11:12:41;;;;;;;2.55;1.20;;;17.10;99.90;;;;;;1911492;75;21095;-79
2022/09/21 11:15:40;;;;;;;2.90;0.98;;;17.20;99.90;;;;;;1884715;75;21055;-78
2022/09/21 11:18:37;;;;;;;2.50;0.90;;;17.30;99.90;;;;;;1888510;75;21124;-79
2022/09/21 11:21:32;;;;;;;4.30;1.20;;;17.30;99.90;;;;;;1884934;75;21114;-79
2022/09/21 11:24:29;;;;;;;2.98;1.30;;;17.40;99.90;;;;;;1904120;75;21146;-79
2022/09/21 11:32:59;;;;;;;5.70;1.30;;;17.50;99.90;;;;;;1936219;72;22218;-81
2022/09/21 11:35:58;;;;;;;7.47;1.30;;;17.50;99.90;;;;;;1910073;75;21051;-79
2022/09/21 11:38:55;;;;;;;4.58;1.40;;;17.70;99.90;;;;;;1890391;75;21063;-78
2022/09/21 11:41:55;;;;;;;2.47;1.00;;;17.80;99.90;;;;;;1889469;75;21091;-78
2022/09/21 11:44:55;;;;;;;2.62;1.05;;;17.90;99.90;;;;;;1897310;75;21138;-78
2022/09/21 11:47:56;;;;;;;2.87;1.15;;;17.90;99.90;;;;;;1889662;75;21114;-79
2022/09/21 11:50:56;;;;;;;3.90;1.50;;;18.00;99.90;;;;;;1892252;75;21131;-78
2022/09/21 11:54:02;;;;;;;3.58;1.25;;;18.00;99.90;;;;;;1901029;75;21244;-78
2022/09/21 11:56:57;;;;;;;1.87;1.05;;;18.10;99.90;;;;;;1901671;75;21205;-78
2022/09/21 11:59:59;;;;;;;1.95;1.00;;;18.10;99.90;;;;;;1899606;75;21133;-79
2022/09/21 12:03:17;;;;;;;2.77;0.95;;;18.10;99.90;;;;;;1899754;75;21112;-79
2022/09/21 12:10:04;;;;;;;3.52;1.27;;;18.40;99.90;;;;;;1946971;72;22243;-78
2022/09/21 12:13:01;;;;;;;3.20;0.88;;;18.40;99.90;;;;;;1892790;75;21514;-79
2022/09/21 12:15:56;;;;;;;3.62;0.98;;;18.50;99.90;;;;;;1894662;75;21191;-79
2022/09/21 12:21:32;;;;;;;1.62;0.95;;;18.60;99.90;;;;;;1948037;72;22331;-78
2022/09/21 12:24:27;;;;;;;2.90;1.00;;;18.70;99.90;;;;;;1919930;73;21101;-78
2022/09/21 12:30:08;;;;;;;2.95;1.02;;;18.80;99.90;;;;;;1952695;72;22135;-80
2022/09/21 12:33:02;;;;;;;3.60;1.27;;;18.90;99.90;;;;;;1908886;75;21568;-80
2022/09/21 12:35:57;;;;;;;2.25;0.93;;;18.90;99.90;;;;;;1914869;75;21084;-79
2022/09/21 12:38:54;;;;;;;4.30;1.05;;;19.00;99.90;;;;;;1917281;75;21114;-79
2022/09/21 12:41:51;;;;;;;2.10;0.95;;;19.10;99.90;;;;;;1917539;75;21106;-78
2022/09/21 12:50:19;;;;;;;4.25;1.10;;;19.20;99.90;;;;;;1952331;72;22165;-78
2022/09/21 12:55:55;;;;;;;2.45;1.10;;;19.10;99.90;;;;;;1928317;72;22664;-79
2022/09/21 13:01:36;;;;;;;5.65;1.12;;;19.40;99.90;;;;;;1961866;72;22127;-79
2022/09/21 13:04:42;;;;;;;3.83;1.30;;;19.30;99.90;;;;;;1928877;73;21137;-79
2022/09/21 13:07:56;;;;;;;2.45;1.10;;;19.40;99.90;;;;;;1921923;73;21059;-80
2022/09/21 13:10:54;;;;;;;3.95;1.10;;;19.40;99.90;;;;;;1934006;73;21055;-79
2022/09/21 13:16:29;;;;;;;2.95;1.25;;;19.40;99.90;;;;;;1926357;72;22118;-78
2022/09/21 13:19:22;;;;;;;5.10;1.15;;;19.40;99.90;;;;;;1902580;75;21036;-81
2022/09/21 13:22:22;;;;;;;3.60;1.20;;;19.50;99.90;;;;;;1906402;75;21126;-80
2022/09/21 13:25:23;;;;;;;1.95;0.72;;;19.50;99.90;;;;;;1904168;75;21067;-80
2022/09/21 13:28:23;;;;;;;10.60;1.30;;;19.70;99.90;;;;;;1899966;75;21119;-80
2022/09/21 13:31:57;;;;;;;2.52;0.85;;;19.70;99.90;;;;;;1897733;75;21052;-79
2022/09/21 13:34:49;;;;;;;2.25;0.93;;;19.80;99.90;;;;;;1884680;75;21640;-79
2022/09/21 13:37:41;;;;;;;3.15;0.98;;;19.70;99.90;;;;;;1884699;76;21092;-80
2022/09/21 13:40:35;;;;;;;2.77;1.17;;;19.70;99.90;;;;;;1906365;75;21293;-80
2022/09/21 13:44:04;;;;;;;4.50;1.40;;;19.70;99.90;;;;;;1906592;75;21086;-79
2022/09/21 13:46:58;;;;;;;2.02;1.15;;;19.90;99.90;;;;;;1885128;75;21109;-79
2022/09/21 13:49:52;;;;;;;5.53;0.98;;;19.80;99.90;;;;;;1906614;75;21059;-80
2022/09/21 13:52:50;;;;;;;3.80;1.00;;;19.80;99.90;;;;;;1884868;75;21505;-79
2022/09/21 13:55:45;;;;;;;1.55;0.90;;;19.90;99.90;;;;;;1898911;75;21092;-78
2022/09/21 13:58:39;;;;;;;2.62;1.22;;;20.00;99.90;;;;;;1895435;75;21043;-79
2022/09/21 14:01:36;;;;;;;2.70;1.00;;;20.00;99.90;;;;;;1895328;75;21192;-79
2022/09/21 14:04:32;;;;;;;5.05;1.07;;;20.20;99.90;;;;;;1895756;75;21161;-79
2022/09/21 14:07:27;;;;;;;1.62;0.72;;;20.20;99.90;;;;;;1898400;75;21066;-79
2022/09/21 14:10:22;;;;;;;3.60;1.07;;;20.30;99.90;;;;;;1899856;75;21128;-78
2022/09/21 14:13:28;;;;;;;3.02;1.10;;;20.80;99.90;;;;;;1895487;75;21100;-78
2022/09/21 14:16:54;;;;;;;2.20;1.07;;;21.40;99.90;;;;;;1886683;75;21153;-77
2022/09/21 14:20:32;;;;;;;2.42;1.02;;;21.70;99.90;;;;;;1897151;75;21091;-79
2022/09/21 14:23:30;;;;;;;3.37;1.32;;;22.00;99.90;;;;;;1903000;75;21067;-79
2022/09/21 14:26:32;;;;;;;4.78;1.20;;;22.50;99.90;;;;;;1902442;75;21515;-79
2022/09/21 14:29:27;;;;;;;3.75;1.12;;;22.70;99.90;;;;;;1895227;75;21538;-79
2022/09/21 14:32:22;;;;;;;2.02;0.98;;;23.00;99.90;;;;;;1894733;75;21136;-80
2022/09/21 14:35:17;;;;;;;2.55;1.10;;;22.90;99.90;;;;;;1907517;75;21082;-79
2022/09/21 14:38:15;;;;;;;4.20;0.90;;;22.90;99.90;;;;;;1884083;76;21087;-79
2022/09/21 14:41:08;;;;;;;3.55;1.07;;;23.10;99.90;;;;;;1899908;75;21102;-79
2022/09/21 14:44:01;;;;;;;3.27;1.07;;;23.20;99.90;;;;;;1884159;75;21170;-79
2022/09/21 14:47:04;;;;;;;3.70;1.07;;;23.50;99.90;;;;;;1884081;76;21414;-79
2022/09/21 14:53:21;;;;;;;1.82;1.10;;;23.40;99.90;;;;;;1950686;72;22178;-79
2022/09/21 14:56:21;;;;;;;3.72;0.90;;;23.50;99.90;;;;;;1917535;75;21059;-79
2022/09/21 15:02:24;;;;;;;2.98;1.05;;;23.70;99.90;;;;;;1948435;72;22119;-79
2022/09/21 15:05:24;;;;;;;1.27;0.72;;;23.90;99.90;;;;;;1899147;75;21055;-79
2022/09/21 15:11:50;;;;;;;3.22;1.07;;;24.20;99.90;;;;;;1894623;75;21123;-81
2022/09/21 15:15:07;;;;;;;3.40;1.22;;;24.30;99.90;;;;;;1886239;75;21332;-79
2022/09/21 15:18:00;;;;;;;4.37;1.00;;;23.80;99.90;;;;;;1883444;75;21522;-77
2022/09/21 15:21:02;;;;;;;4.22;1.00;;;23.80;99.90;;;;;;1883476;75;21099;-77
2022/09/21 15:24:09;;;;;;;2.17;0.70;;;24.20;99.90;;;;;;1881024;75;21115;-79
2022/09/21 15:27:09;;;;;;;3.10;1.20;;;24.40;99.90;;;;;;1894312;75;21116;-78
2022/09/21 15:30:03;;;;;;;3.45;1.70;;;24.00;99.90;;;;;;1892003;75;21048;-77
2022/09/21 15:32:57;;;;;;;3.30;1.07;;;24.30;99.90;;;;;;1890380;75;21108;-78
2022/09/21 15:35:48;;;;;;;2.77;1.10;;;24.00;99.90;;;;;;1894300;75;21129;-79
2022/09/21 15:38:41;;;;;;;1.37;0.88;;;23.80;99.90;;;;;;1894486;75;21064;-79
2022/09/21 15:41:43;;;;;;;3.30;0.95;;;24.20;99.90;;;;;;1894577;75;21188;-81
2022/09/21 15:44:39;;;;;;;2.40;1.00;;;24.20;99.90;;;;;;1892159;75;21072;-77
2022/09/21 15:47:34;;;;;;;6.53;1.15;;;24.30;99.90;;;;;;1886122;75;21123;-77
2022/09/21 15:50:27;;;;;;;3.17;1.10;;;24.40;99.90;;;;;;1882987;75;21123;-77
2022/09/21 15:53:21;;;;;;;4.85;1.15;;;24.70;99.50;;;;;;1901423;75;21063;-77
2022/09/21 15:56:21;;;;;;;3.85;1.20;;;24.00;99.40;;;;;;1893799;75;21162;-77
2022/09/21 15:59:17;;;;;;;3.17;1.12;;;24.00;99.90;;;;;;1887221;75;21110;-79
2022/09/21 16:02:20;;;;;;;2.30;0.95;;;24.20;99.30;;;;;;1904414;74;21205;-80
2022/09/21 16:05:17;;;;;;;2.17;1.17;;;24.30;99.00;;;;;;1889547;75;21056;-79
2022/09/21 16:08:28;;;;;;;2.40;1.10;;;24.30;98.80;;;;;;1882798;75;21566;-79
2022/09/21 16:11:24;;;;;;;2.65;1.10;;;24.50;98.60;;;;;;1900354;75;21134;-79
2022/09/21 16:17:28;;;;;;;4.85;1.10;;;24.10;99.10;;;;;;1888262;75;21141;-78
2022/09/21 16:20:22;;;;;;;3.52;1.17;;;23.70;99.20;;;;;;1890872;75;21638;-78
2022/09/21 16:23:22;;;;;;;2.83;1.10;;;23.70;99.50;;;;;;1892646;75;21098;-78
2022/09/21 16:26:22;;;;;;;4.78;1.17;;;23.20;99.70;;;;;;1888612;75;21197;-77
2022/09/21 16:29:24;;;;;;;3.05;1.25;;;22.80;99.90;;;;;;1879606;75;21557;-78
2022/09/21 16:32:32;;;;;;;4.08;1.17;;;22.40;99.90;;;;;;1898363;75;21128;-77
2022/09/21 16:35:27;;;;;;;4.17;1.12;;;22.10;99.90;;;;;;1899018;74;21166;-78
2022/09/21 16:38:22;;;;;;;3.85;1.10;;;21.60;99.90;;;;;;1899674;75;21044;-77
2022/09/21 16:41:13;;;;;;;2.83;1.10;;;21.20;99.90;;;;;;1890912;75;21088;-78
2022/09/21 16:44:05;;;;;;;3.50;1.30;;;21.00;99.90;;;;;;1889822;75;21055;-77
2022/09/21 16:47:00;;;;;;;5.67;1.50;;;20.60;99.90;;;;;;1884892;75;21103;-78
2022/09/21 16:49:55;;;;;;;5.80;1.52;;;20.30;99.90;;;;;;1907811;75;21067;-78
2022/09/21 16:52:47;;;;;;;4.47;1.75;;;20.00;99.90;;;;;;1877719;76;21153;-78
2022/09/21 16:55:39;;;;;;;5.25;1.50;;;19.80;99.90;;;;;;1891806;75;21209;-78
2022/09/21 16:58:31;;;;;;;5.25;1.22;;;19.70;99.90;;;;;;1890194;75;21084;-79
2022/09/21 17:01:23;;;;;;;2.92;1.27;;;19.60;99.90;;;;;;1820019;78;21551;-78
2022/09/21 17:04:14;;;;;;;1.27;0.90;;;19.40;99.90;;;;;;1891491;74;21180;-78
2022/09/21 17:07:06;;;;;;;4.17;1.07;;;19.40;99.90;;;;;;1890939;75;21106;-78
2022/09/21 17:09:58;;;;;;;9.13;1.22;;;19.30;99.90;;;;;;1887977;75;21059;-78
2022/09/21 17:12:52;;;;;;;4.17;1.17;;;19.20;99.90;;;;;;1887351;75;21129;-78
2022/09/21 17:18:24;;;;;;;4.00;1.00;;;19.10;99.90;;;;;;1955689;72;22638;-78
2022/09/21 17:21:17;;;;;;;2.35;1.15;;;19.00;99.90;;;;;;1896107;74;21119;-78
2022/09/21 17:24:08;;;;;;;2.60;0.80;;;19.00;99.90;;;;;;1895229;75;21047;-78
2022/09/21 17:27:00;;;;;;;2.02;1.00;;;18.90;99.90;;;;;;1884691;76;21635;-78
2022/09/21 17:29:52;;;;;;;3.50;1.02;;;18.90;99.90;;;;;;1899020;75;21116;-80
2022/09/21 17:32:46;;;;;;;2.12;0.88;;;18.80;99.90;;;;;;1895206;75;21110;-78
2022/09/21 17:35:39;;;;;;;2.87;1.15;;;18.80;99.90;;;;;;1895189;75;21196;-78
2022/09/21 17:38:31;;;;;;;3.70;1.20;;;18.80;99.90;;;;;;1895996;75;21167;-78
2022/09/21 17:41:27;;;;;;;2.37;1.07;;;18.70;99.90;;;;;;1901097;75;21112;-78
2022/09/21 17:44:34;;;;;;;2.87;1.05;;;18.70;99.90;;;;;;1884823;76;21055;-78
2022/09/21 17:47:28;;;;;;;3.67;1.05;;;18.70;99.90;;;;;;1884365;75;21097;-78
2022/09/21 17:50:24;;;;;;;3.47;1.02;;;18.60;99.90;;;;;;1906784;75;21060;-79
2022/09/21 17:53:36;;;;;;;3.30;1.10;;;18.60;99.90;;;;;;1887566;75;21121;-78
2022/09/21 17:56:34;;;;;;;1.40;0.80;;;18.50;99.90;;;;;;1915234;75;21090;-79